Time;durP1;ratioP1;P1;durP2;ratioP2;P2;SDS_P1;SDS_P2;PMS_P1;PMS_P2;Temp;Humidity;BMP_temperature;BMP_pressure;BME280_temperature;BME280_humidity;BME280_pressure;Samples;Min_cycle;Max_cycle;Signal;HPM_P1;HPM_P2
2023/07/21 00:01:16;;;;;;;3.35;2.50;;;;;;;;;;5071121;28;20471;-78
2023/07/21 00:03:43;;;;;;;3.97;2.60;;;;;;;;;;5069028;28;20044;-77
2023/07/21 00:06:10;;;;;;;5.65;2.95;;;;;;;;;;5069544;28;20567;-77
2023/07/21 00:08:37;;;;;;;6.18;3.33;;;;;;;;;;5072039;28;20089;-79
2023/07/21 00:11:04;;;;;;;3.58;2.70;;;;;;;;;;5071378;28;20047;-79
2023/07/21 00:13:35;;;;;;;8.50;3.22;;;;;;;;;;5070731;28;20048;-78
2023/07/21 00:16:04;;;;;;;5.88;3.45;;;;;;;;;;5072564;28;20047;-80
2023/07/21 00:18:32;;;;;;;6.65;2.97;;;;;;;;;;5070887;28;20048;-78
2023/07/21 00:20:59;;;;;;;6.40;3.28;;;;;;;;;;5077391;28;20040;-79
2023/07/21 00:23:26;;;;;;;9.25;3.00;;;;;;;;;;5076477;28;20051;-79
2023/07/21 00:25:54;;;;;;;6.13;3.30;;;;;;;;;;5072988;28;20048;-77
2023/07/21 00:28:21;;;;;;;4.68;3.38;;;;;;;;;;5074246;28;20064;-79
2023/07/21 00:30:48;;;;;;;4.63;3.05;;;;;;;;;;5077194;28;20128;-79
2023/07/21 00:33:15;;;;;;;3.47;3.05;;;;;;;;;;5077961;28;20086;-79
2023/07/21 00:35:42;;;;;;;5.03;3.33;;;;;;;;;;5076090;28;20063;-79
2023/07/21 00:38:09;;;;;;;9.55;3.38;;;;;;;;;;5070598;28;20478;-79
2023/07/21 00:40:37;;;;;;;7.70;3.30;;;;;;;;;;5058457;28;20112;-79
2023/07/21 00:43:04;;;;;;;5.28;3.22;;;;;;;;;;5066376;28;20115;-76
2023/07/21 00:45:34;;;;;;;6.25;3.40;;;;;;;;;;5069565;28;20151;-78
2023/07/21 00:48:01;;;;;;;8.88;3.30;;;;;;;;;;5070563;28;20048;-78
2023/07/21 00:50:28;;;;;;;4.88;3.05;;;;;;;;;;5070575;28;20387;-79
2023/07/21 00:52:57;;;;;;;4.72;3.25;;;;;;;;;;5069340;28;20514;-79
2023/07/21 00:55:27;;;;;;;12.90;3.38;;;;;;;;;;5068937;28;20067;-78
2023/07/21 00:57:53;;;;;;;8.43;4.05;;;;;;;;;;5071632;28;20048;-79
2023/07/21 01:00:24;;;;;;;6.03;3.20;;;;;;;;;;5072986;28;20086;-78
2023/07/21 01:02:51;;;;;;;6.13;3.92;;;;;;;;;;5074288;28;20032;-79
2023/07/21 01:05:20;;;;;;;5.65;3.72;;;;;;;;;;5076241;28;20071;-79
2023/07/21 01:07:49;;;;;;;4.75;3.17;;;;;;;;;;5059662;28;20118;-79
2023/07/21 01:10:20;;;;;;;4.95;3.40;;;;;;;;;;5077478;28;20053;-78
2023/07/21 01:12:48;;;;;;;7.38;3.63;;;;;;;;;;5081628;28;20083;-79
2023/07/21 01:15:15;;;;;;;6.20;3.00;;;;;;;;;;5075375;28;20064;-79
2023/07/21 01:17:42;;;;;;;8.93;3.92;;;;;;;;;;5066024;28;20033;-78
2023/07/21 01:20:16;;;;;;;6.95;3.88;;;;;;;;;;5076402;28;20208;-79
2023/07/21 01:22:53;;;;;;;6.32;4.22;;;;;;;;;;5073646;28;20064;-78
2023/07/21 01:25:21;;;;;;;6.05;3.97;;;;;;;;;;5064036;28;20059;-78
2023/07/21 01:27:49;;;;;;;8.13;3.67;;;;;;;;;;5073185;28;20056;-79
2023/07/21 01:30:17;;;;;;;4.38;3.00;;;;;;;;;;5068099;28;20076;-79
2023/07/21 01:32:50;;;;;;;9.00;3.25;;;;;;;;;;5069838;28;20052;-78
2023/07/21 01:35:17;;;;;;;7.30;3.13;;;;;;;;;;5069529;28;20040;-80
2023/07/21 01:37:46;;;;;;;4.40;3.03;;;;;;;;;;5065068;28;20111;-79
2023/07/21 01:40:13;;;;;;;4.70;3.45;;;;;;;;;;5055163;28;20069;-78
2023/07/21 01:42:41;;;;;;;6.70;3.13;;;;;;;;;;5070048;28;20052;-80
2023/07/21 01:45:07;;;;;;;9.98;2.92;;;;;;;;;;5060831;28;20120;-79
2023/07/21 01:47:35;;;;;;;7.63;2.97;;;;;;;;;;5069031;28;20052;-79
2023/07/21 01:50:06;;;;;;;5.90;2.90;;;;;;;;;;5065471;28;20042;-79
2023/07/21 01:52:34;;;;;;;7.32;3.35;;;;;;;;;;5077689;28;20112;-78
2023/07/21 01:55:10;;;;;;;5.28;2.92;;;;;;;;;;5077375;28;20045;-78
2023/07/21 01:57:43;;;;;;;8.45;3.50;;;;;;;;;;5064191;28;20071;-78
2023/07/21 02:00:10;;;;;;;9.40;3.00;;;;;;;;;;5066298;28;20045;-78
2023/07/21 02:02:47;;;;;;;9.93;3.42;;;;;;;;;;5058214;28;20033;-78
2023/07/21 02:05:32;;;;;;;6.65;3.28;;;;;;;;;;5049512;28;20072;-77
2023/07/21 02:07:59;;;;;;;6.07;2.88;;;;;;;;;;5075345;28;20572;-78
2023/07/21 02:10:25;;;;;;;5.75;3.00;;;;;;;;;;5052131;28;20053;-79
2023/07/21 02:13:04;;;;;;;6.35;3.13;;;;;;;;;;5062394;28;20041;-79
2023/07/21 02:15:34;;;;;;;9.65;3.05;;;;;;;;;;5054589;28;20049;-79
2023/07/21 02:18:01;;;;;;;9.57;3.15;;;;;;;;;;5065914;28;20051;-78
2023/07/21 02:20:28;;;;;;;7.20;3.28;;;;;;;;;;5066396;28;20051;-79
2023/07/21 02:22:55;;;;;;;4.07;3.08;;;;;;;;;;5073461;28;20122;-79
2023/07/21 02:25:22;;;;;;;8.02;2.97;;;;;;;;;;5072905;28;20052;-79
2023/07/21 02:27:50;;;;;;;7.60;3.13;;;;;;;;;;5065212;28;20238;-79
2023/07/21 02:30:16;;;;;;;7.45;2.97;;;;;;;;;;5050722;28;20041;-79
2023/07/21 02:32:43;;;;;;;5.22;3.25;;;;;;;;;;5068942;28;20144;-79
2023/07/21 02:35:10;;;;;;;8.65;3.30;;;;;;;;;;5059756;28;20151;-79
2023/07/21 02:37:37;;;;;;;5.28;3.08;;;;;;;;;;5065192;28;20581;-78
2023/07/21 02:40:04;;;;;;;6.85;2.97;;;;;;;;;;5068360;28;20048;-78
2023/07/21 02:42:31;;;;;;;5.18;3.38;;;;;;;;;;5060279;28;20200;-79
2023/07/21 02:44:58;;;;;;;10.13;3.20;;;;;;;;;;5060502;28;20498;-78
2023/07/21 02:47:26;;;;;;;7.97;3.45;;;;;;;;;;5060818;28;20117;-78
2023/07/21 02:49:53;;;;;;;10.35;4.45;;;;;;;;;;5064491;28;20041;-79
2023/07/21 02:52:20;;;;;;;7.10;3.72;;;;;;;;;;5072978;28;20045;-77
2023/07/21 02:54:52;;;;;;;7.32;3.72;;;;;;;;;;5073352;28;20059;-79
2023/07/21 02:57:18;;;;;;;6.65;4.20;;;;;;;;;;5052567;28;20460;-79
2023/07/21 02:59:46;;;;;;;5.22;3.88;;;;;;;;;;5059100;28;20048;-79
2023/07/21 03:02:18;;;;;;;7.32;4.45;;;;;;;;;;5067094;28;20052;-79
2023/07/21 03:04:49;;;;;;;9.15;4.80;;;;;;;;;;5062655;28;20033;-79
2023/07/21 03:07:16;;;;;;;7.57;5.00;;;;;;;;;;5072849;28;20048;-79
2023/07/21 03:09:48;;;;;;;8.75;4.13;;;;;;;;;;5066576;28;20036;-79
2023/07/21 03:12:21;;;;;;;12.77;5.00;;;;;;;;;;5073389;28;20159;-78
2023/07/21 03:14:57;;;;;;;7.50;4.60;;;;;;;;;;5065937;28;20044;-79
2023/07/21 03:17:24;;;;;;;10.05;4.25;;;;;;;;;;5065837;28;20045;-78
2023/07/21 03:19:51;;;;;;;17.52;4.80;;;;;;;;;;5064948;28;20052;-78
2023/07/21 03:22:18;;;;;;;13.23;4.60;;;;;;;;;;5066269;28;20287;-79
2023/07/21 03:24:46;;;;;;;9.88;4.00;;;;;;;;;;5071009;28;20036;-79
2023/07/21 03:27:14;;;;;;;15.77;4.65;;;;;;;;;;5067266;28;20410;-79
2023/07/21 03:29:42;;;;;;;10.65;3.90;;;;;;;;;;5053543;28;20511;-78
2023/07/21 03:32:13;;;;;;;9.57;4.20;;;;;;;;;;5072799;28;20044;-78
2023/07/21 03:34:40;;;;;;;8.93;4.32;;;;;;;;;;5072181;28;20041;-79
2023/07/21 03:37:07;;;;;;;9.07;4.80;;;;;;;;;;5041984;28;20132;-78
2023/07/21 03:39:34;;;;;;;10.30;4.18;;;;;;;;;;5058909;28;20051;-78
2023/07/21 03:42:01;;;;;;;6.72;4.07;;;;;;;;;;5054228;28;20047;-78
2023/07/21 03:44:27;;;;;;;7.68;4.10;;;;;;;;;;5064190;28;20086;-78
2023/07/21 03:46:54;;;;;;;7.80;4.05;;;;;;;;;;5066166;28;20064;-78
2023/07/21 03:49:35;;;;;;;5.82;3.72;;;;;;;;;;5052102;28;20052;-78
2023/07/21 03:52:07;;;;;;;8.70;4.18;;;;;;;;;;5059672;28;20051;-78
2023/07/21 03:54:35;;;;;;;8.93;3.92;;;;;;;;;;5071186;28;20123;-78
2023/07/21 03:57:01;;;;;;;5.43;3.78;;;;;;;;;;5073881;28;20552;-79
2023/07/21 03:59:29;;;;;;;13.50;3.75;;;;;;;;;;5084252;28;20089;-77
2023/07/21 04:01:56;;;;;;;7.63;3.88;;;;;;;;;;5073256;28;20100;-79
2023/07/21 04:04:23;;;;;;;11.32;3.47;;;;;;;;;;5071206;28;20059;-80
2023/07/21 04:06:49;;;;;;;12.57;3.53;;;;;;;;;;5076159;28;20045;-79
2023/07/21 04:09:16;;;;;;;15.65;3.85;;;;;;;;;;5049074;28;20574;-80
2023/07/21 04:11:43;;;;;;;11.32;3.50;;;;;;;;;;5076094;28;20045;-80
2023/07/21 04:14:10;;;;;;;8.50;3.45;;;;;;;;;;5065784;28;20044;-79
2023/07/21 04:16:37;;;;;;;16.08;3.38;;;;;;;;;;5073943;28;20094;-80
2023/07/21 04:19:04;;;;;;;7.80;3.50;;;;;;;;;;5060951;28;20036;-80
2023/07/21 04:21:31;;;;;;;12.70;4.07;;;;;;;;;;5077900;28;20051;-79
2023/07/21 04:23:58;;;;;;;10.40;3.95;;;;;;;;;;5068932;28;20079;-80
2023/07/21 04:26:24;;;;;;;8.82;4.07;;;;;;;;;;5077449;28;20060;-79
2023/07/21 04:28:52;;;;;;;9.90;4.38;;;;;;;;;;5064957;28;20040;-79
2023/07/21 04:31:21;;;;;;;7.57;3.75;;;;;;;;;;5073012;28;20197;-79
2023/07/21 04:34:01;;;;;;;5.63;4.00;;;;;;;;;;5081412;28;20115;-79
2023/07/21 04:36:28;;;;;;;7.38;4.07;;;;;;;;;;5083053;28;20044;-79
2023/07/21 04:38:59;;;;;;;5.72;4.00;;;;;;;;;;5070671;28;20056;-79
2023/07/21 04:41:27;;;;;;;5.63;3.50;;;;;;;;;;5062308;28;20061;-78
2023/07/21 04:43:54;;;;;;;4.70;3.55;;;;;;;;;;5064596;28;20506;-78
2023/07/21 04:46:25;;;;;;;5.38;3.70;;;;;;;;;;5072170;28;20051;-78
2023/07/21 04:48:52;;;;;;;7.50;4.20;;;;;;;;;;5066806;28;20040;-79
2023/07/21 04:51:26;;;;;;;9.95;3.97;;;;;;;;;;5064644;28;20049;-79
2023/07/21 04:53:53;;;;;;;8.55;3.47;;;;;;;;;;5075786;28;20045;-77
2023/07/21 04:56:19;;;;;;;6.15;3.35;;;;;;;;;;5072339;28;20055;-79
2023/07/21 04:58:51;;;;;;;9.35;3.33;;;;;;;;;;5076296;28;20056;-78
2023/07/21 05:01:17;;;;;;;7.25;3.42;;;;;;;;;;5066243;28;20055;-79
2023/07/21 05:03:44;;;;;;;7.53;3.20;;;;;;;;;;5065853;28;20041;-78
2023/07/21 05:06:12;;;;;;;4.82;3.10;;;;;;;;;;5063531;28;20144;-78
2023/07/21 05:08:43;;;;;;;7.18;3.40;;;;;;;;;;5070897;28;20127;-78
2023/07/21 05:11:10;;;;;;;6.18;3.42;;;;;;;;;;5074819;28;20041;-80
2023/07/21 05:13:38;;;;;;;4.88;3.40;;;;;;;;;;5068854;28;20041;-78
2023/07/21 05:16:13;;;;;;;6.57;3.05;;;;;;;;;;5074626;28;20091;-78
2023/07/21 05:19:04;;;;;;;5.20;3.60;;;;;;;;;;5039254;28;20041;-77
2023/07/21 05:21:55;;;;;;;7.28;3.42;;;;;;;;;;5075395;28;20045;-78
2023/07/21 05:24:41;;;;;;;8.88;3.58;;;;;;;;;;5069951;28;20094;-79
2023/07/21 05:27:08;;;;;;;10.25;3.75;;;;;;;;;;5069620;28;20049;-78
2023/07/21 05:29:48;;;;;;;12.18;3.38;;;;;;;;;;5069350;28;20045;-79
2023/07/21 05:32:15;;;;;;;11.68;3.45;;;;;;;;;;5067491;28;20045;-79
2023/07/21 05:34:50;;;;;;;7.32;3.60;;;;;;;;;;5077644;28;20040;-79
2023/07/21 05:37:16;;;;;;;17.95;3.47;;;;;;;;;;5073550;28;20183;-80
2023/07/21 05:39:46;;;;;;;5.78;3.60;;;;;;;;;;5065624;28;20040;-79
2023/07/21 05:42:13;;;;;;;7.47;3.22;;;;;;;;;;5062678;28;20106;-77
2023/07/21 05:44:40;;;;;;;6.43;3.78;;;;;;;;;;5068450;28;20048;-79
2023/07/21 05:47:08;;;;;;;6.75;2.95;;;;;;;;;;5066362;28;20574;-79
2023/07/21 05:49:35;;;;;;;4.32;3.38;;;;;;;;;;5077957;28;20047;-79
2023/07/21 05:52:02;;;;;;;6.30;3.30;;;;;;;;;;5070453;28;20098;-78
2023/07/21 05:54:37;;;;;;;8.50;3.40;;;;;;;;;;5061447;28;20065;-79
2023/07/21 05:57:04;;;;;;;8.50;3.25;;;;;;;;;;5069592;28;20094;-79
2023/07/21 05:59:36;;;;;;;6.93;3.17;;;;;;;;;;5077604;28;20242;-78
2023/07/21 06:02:03;;;;;;;5.70;3.05;;;;;;;;;;5065232;28;20041;-78
2023/07/21 06:04:35;;;;;;;6.30;3.10;;;;;;;;;;5067060;28;20505;-79
2023/07/21 06:07:25;;;;;;;9.40;3.53;;;;;;;;;;5073209;28;20064;-80
2023/07/21 06:10:12;;;;;;;13.02;3.50;;;;;;;;;;5071726;28;20045;-79
2023/07/21 06:13:01;;;;;;;5.00;3.35;;;;;;;;;;5056109;28;20043;-79
2023/07/21 06:15:49;;;;;;;9.45;3.30;;;;;;;;;;5066045;28;20049;-79
2023/07/21 06:18:20;;;;;;;5.65;3.40;;;;;;;;;;5070710;28;20135;-79
2023/07/21 06:20:47;;;;;;;6.43;3.65;;;;;;;;;;5048760;28;20036;-79
2023/07/21 06:23:14;;;;;;;5.03;3.38;;;;;;;;;;5056585;28;20077;-79
2023/07/21 06:25:41;;;;;;;5.57;3.20;;;;;;;;;;5065994;28;20060;-80
2023/07/21 06:28:13;;;;;;;5.55;3.42;;;;;;;;;;5063231;28;20537;-79
2023/07/21 06:30:39;;;;;;;5.20;3.25;;;;;;;;;;5065388;28;20051;-78
2023/07/21 06:33:10;;;;;;;5.65;3.35;;;;;;;;;;5064852;28;20045;-79
2023/07/21 06:35:46;;;;;;;8.52;3.17;;;;;;;;;;5063980;28;20044;-79
2023/07/21 06:38:35;;;;;;;5.75;3.47;;;;;;;;;;5065301;28;20562;-79
2023/07/21 06:41:07;;;;;;;6.57;3.88;;;;;;;;;;5063020;28;20235;-79
2023/07/21 06:43:43;;;;;;;5.28;3.22;;;;;;;;;;5072487;28;20114;-79
2023/07/21 06:46:36;;;;;;;8.55;3.40;;;;;;;;;;5028559;28;20049;-80
2023/07/21 06:49:07;;;;;;;5.32;3.47;;;;;;;;;;5060563;28;20135;-78
2023/07/21 06:51:47;;;;;;;7.68;3.20;;;;;;;;;;5073767;28;20040;-78
2023/07/21 06:54:14;;;;;;;7.30;3.13;;;;;;;;;;5065789;28;20059;-78
2023/07/21 06:56:40;;;;;;;4.15;3.10;;;;;;;;;;5072921;28;20487;-79
2023/07/21 06:59:07;;;;;;;13.30;3.38;;;;;;;;;;5063239;28;20513;-78
2023/07/21 07:01:34;;;;;;;4.28;3.08;;;;;;;;;;5071708;28;20485;-78
2023/07/21 07:04:00;;;;;;;5.72;3.05;;;;;;;;;;5064724;28;20048;-79
2023/07/21 07:06:28;;;;;;;4.07;3.05;;;;;;;;;;5072481;28;20097;-78
2023/07/21 07:08:55;;;;;;;6.93;3.10;;;;;;;;;;5046231;28;20068;-78
2023/07/21 07:11:22;;;;;;;7.80;3.45;;;;;;;;;;5074902;28;20037;-78
2023/07/21 07:13:49;;;;;;;5.38;3.03;;;;;;;;;;5064570;28;20499;-79
2023/07/21 07:16:17;;;;;;;7.00;2.70;;;;;;;;;;5059961;28;20041;-79
2023/07/21 07:18:44;;;;;;;5.50;2.83;;;;;;;;;;5062198;28;20033;-79
2023/07/21 07:21:12;;;;;;;5.40;2.47;;;;;;;;;;5061629;28;20037;-79
2023/07/21 07:23:39;;;;;;;6.57;2.67;;;;;;;;;;5070881;28;20044;-78
2023/07/21 07:26:06;;;;;;;4.40;2.70;;;;;;;;;;5065821;28;20099;-77
2023/07/21 07:28:33;;;;;;;6.47;2.70;;;;;;;;;;5078889;28;20053;-79
2023/07/21 07:31:03;;;;;;;5.97;2.47;;;;;;;;;;5075480;28;20041;-78
2023/07/21 07:33:31;;;;;;;4.75;2.88;;;;;;;;;;5063501;28;20063;-79
2023/07/21 07:35:59;;;;;;;6.38;2.70;;;;;;;;;;5076578;28;20051;-78
2023/07/21 07:38:27;;;;;;;7.93;2.65;;;;;;;;;;5068860;28;20121;-78
2023/07/21 07:40:54;;;;;;;4.45;2.70;;;;;;;;;;5063726;28;20295;-79
2023/07/21 07:43:21;;;;;;;3.78;2.50;;;;;;;;;;5068360;28;20068;-79
2023/07/21 07:45:47;;;;;;;3.13;2.42;;;;;;;;;;5075805;28;20041;-79
2023/07/21 07:48:15;;;;;;;8.40;2.72;;;;;;;;;;5077879;28;20072;-79
2023/07/21 07:50:43;;;;;;;5.80;2.40;;;;;;;;;;5072145;28;20073;-79
2023/07/21 07:53:09;;;;;;;5.05;2.63;;;;;;;;;;5066373;28;20044;-79
2023/07/21 07:55:38;;;;;;;4.82;2.65;;;;;;;;;;5066720;28;20132;-79
2023/07/21 07:58:05;;;;;;;6.53;2.53;;;;;;;;;;5059129;28;20040;-79
2023/07/21 08:00:33;;;;;;;3.88;2.20;;;;;;;;;;5074220;28;20041;-80
2023/07/21 08:02:59;;;;;;;4.05;1.90;;;;;;;;;;5074728;28;20052;-80
2023/07/21 08:05:26;;;;;;;4.05;1.77;;;;;;;;;;5066865;28;20049;-79
2023/07/21 08:07:52;;;;;;;2.90;1.90;;;;;;;;;;5074966;28;20048;-78
2023/07/21 08:10:19;;;;;;;2.38;1.85;;;;;;;;;;5066739;28;20052;-79
2023/07/21 08:12:46;;;;;;;2.60;1.33;;;;;;;;;;5065512;28;20499;-79
2023/07/21 08:15:12;;;;;;;2.40;1.60;;;;;;;;;;5069206;28;20041;-80
2023/07/21 08:17:39;;;;;;;2.75;1.30;;;;;;;;;;5064210;28;20059;-78
2023/07/21 08:20:08;;;;;;;4.25;1.50;;;;;;;;;;5071234;28;20514;-79
2023/07/21 08:22:35;;;;;;;2.90;1.40;;;;;;;;;;5070410;28;20040;-80
2023/07/21 08:25:05;;;;;;;2.55;1.50;;;;;;;;;;5085033;28;20024;-77
2023/07/21 08:27:34;;;;;;;1.70;1.52;;;;;;;;;;5085003;28;20057;-78
2023/07/21 08:30:04;;;;;;;1.98;1.30;;;;;;;;;;5073664;28;20074;-79
2023/07/21 08:32:31;;;;;;;4.40;1.88;;;;;;;;;;5064617;28;20041;-78
2023/07/21 08:35:00;;;;;;;4.70;2.58;;;;;;;;;;5065392;28;20502;-78
2023/07/21 08:37:27;;;;;;;4.15;1.90;;;;;;;;;;5074056;28;20051;-78
2023/07/21 08:39:53;;;;;;;3.40;1.70;;;;;;;;;;5068514;28;20045;-79
2023/07/21 08:42:21;;;;;;;5.25;1.73;;;;;;;;;;5066984;28;20048;-79
2023/07/21 08:44:48;;;;;;;2.25;1.60;;;;;;;;;;5074705;28;20447;-79
2023/07/21 08:47:15;;;;;;;2.55;1.60;;;;;;;;;;5065099;28;20458;-78
2023/07/21 08:49:41;;;;;;;2.92;1.77;;;;;;;;;;5073514;28;20071;-78
2023/07/21 08:52:08;;;;;;;5.13;1.60;;;;;;;;;;5059227;28;20135;-78
2023/07/21 08:54:34;;;;;;;2.28;1.60;;;;;;;;;;5062955;28;20052;-78
2023/07/21 08:57:01;;;;;;;1.85;1.48;;;;;;;;;;5066188;28;20036;-78
2023/07/21 08:59:28;;;;;;;4.30;1.60;;;;;;;;;;5073220;28;20400;-77
2023/07/21 09:01:54;;;;;;;2.35;1.70;;;;;;;;;;5063333;28;20132;-78
2023/07/21 09:04:24;;;;;;;3.40;1.90;;;;;;;;;;5068283;28;20060;-78
2023/07/21 09:06:58;;;;;;;4.63;2.10;;;;;;;;;;5065590;28;20045;-79
2023/07/21 09:09:25;;;;;;;2.83;1.70;;;;;;;;;;5064203;28;20110;-77
2023/07/21 09:12:00;;;;;;;3.50;1.80;;;;;;;;;;5063202;28;20582;-78
2023/07/21 09:14:43;;;;;;;5.00;1.70;;;;;;;;;;5073454;28;20106;-79
2023/07/21 09:17:13;;;;;;;3.80;1.90;;;;;;;;;;5065159;28;20051;-78
2023/07/21 09:19:41;;;;;;;3.05;2.00;;;;;;;;;;5072985;28;20048;-78
2023/07/21 09:22:08;;;;;;;2.88;2.10;;;;;;;;;;5075220;28;20546;-78
2023/07/21 09:24:37;;;;;;;3.10;1.77;;;;;;;;;;5068870;28;20050;-78
2023/07/21 09:27:14;;;;;;;3.08;1.90;;;;;;;;;;5075253;28;20046;-79
2023/07/21 09:29:41;;;;;;;3.53;1.63;;;;;;;;;;5069066;28;20051;-78
2023/07/21 09:32:14;;;;;;;4.13;1.95;;;;;;;;;;5067101;28;20097;-78
2023/07/21 09:34:56;;;;;;;3.55;1.45;;;;;;;;;;5076787;28;20052;-79
2023/07/21 09:37:29;;;;;;;2.47;1.38;;;;;;;;;;5065938;28;20075;-77
2023/07/21 09:39:57;;;;;;;3.25;1.77;;;;;;;;;;5069910;28;20044;-79
2023/07/21 09:42:24;;;;;;;2.15;1.55;;;;;;;;;;5064269;28;20061;-78
2023/07/21 09:44:51;;;;;;;5.00;1.70;;;;;;;;;;5070125;28;20142;-79
2023/07/21 09:47:18;;;;;;;3.80;1.48;;;;;;;;;;5061181;28;20051;-77
2023/07/21 09:49:45;;;;;;;4.22;1.60;;;;;;;;;;5054277;28;20037;-78
2023/07/21 09:52:15;;;;;;;2.58;1.50;;;;;;;;;;5073578;28;20037;-79
2023/07/21 09:54:44;;;;;;;2.45;1.55;;;;;;;;;;5065592;28;20037;-78
2023/07/21 09:57:13;;;;;;;1.95;1.17;;;;;;;;;;5066135;28;20041;-79
2023/07/21 09:59:43;;;;;;;1.40;1.20;;;;;;;;;;5066773;28;20032;-79
2023/07/21 10:02:10;;;;;;;1.83;1.38;;;;;;;;;;5063305;28;20079;-79
2023/07/21 10:04:37;;;;;;;2.45;1.60;;;;;;;;;;5062899;28;20040;-78
2023/07/21 10:07:05;;;;;;;1.25;1.00;;;;;;;;;;5074629;28;20040;-79
2023/07/21 10:09:32;;;;;;;3.60;1.58;;;;;;;;;;5073357;28;20062;-77
2023/07/21 10:12:08;;;;;;;2.83;1.48;;;;;;;;;;5061665;28;20048;-78
2023/07/21 10:14:36;;;;;;;3.78;1.63;;;;;;;;;;5066421;28;20051;-77
2023/07/21 10:17:03;;;;;;;2.30;1.33;;;;;;;;;;5062228;28;20032;-78
2023/07/21 10:19:37;;;;;;;2.03;1.50;;;;;;;;;;5063024;28;20094;-78
2023/07/21 10:22:05;;;;;;;3.17;1.40;;;;;;;;;;5067100;28;20041;-79
2023/07/21 10:24:32;;;;;;;2.00;1.50;;;;;;;;;;5071108;28;20137;-79
2023/07/21 10:27:03;;;;;;;4.38;1.52;;;;;;;;;;5061644;28;20048;-79
2023/07/21 10:29:30;;;;;;;2.22;1.30;;;;;;;;;;5067750;28;20070;-79
2023/07/21 10:32:03;;;;;;;2.38;1.50;;;;;;;;;;5066149;28;20555;-78
2023/07/21 10:34:36;;;;;;;2.15;1.50;;;;;;;;;;5089244;28;20052;-78
2023/07/21 10:37:07;;;;;;;4.32;1.10;;;;;;;;;;5072224;28;20047;-80
2023/07/21 10:39:38;;;;;;;2.60;1.25;;;;;;;;;;5074741;28;20043;-80
2023/07/21 10:42:06;;;;;;;1.95;1.25;;;;;;;;;;5074321;28;20048;-79
2023/07/21 10:44:33;;;;;;;2.38;1.27;;;;;;;;;;5072707;28;20044;-79
2023/07/21 10:46:59;;;;;;;1.63;1.23;;;;;;;;;;5072899;28;20414;-79
2023/07/21 10:49:26;;;;;;;2.17;1.05;;;;;;;;;;5065435;28;20075;-78
2023/07/21 10:51:53;;;;;;;4.10;1.50;;;;;;;;;;5064534;28;20029;-79
2023/07/21 10:54:20;;;;;;;1.50;1.10;;;;;;;;;;5073608;28;20437;-78
2023/07/21 10:56:48;;;;;;;1.50;1.17;;;;;;;;;;5070761;28;20446;-79
2023/07/21 10:59:15;;;;;;;2.55;1.20;;;;;;;;;;5073448;28;20107;-78
2023/07/21 11:01:44;;;;;;;1.92;1.30;;;;;;;;;;5064299;28;20407;-79
2023/07/21 11:04:11;;;;;;;1.55;1.10;;;;;;;;;;5064295;28;20037;-78
2023/07/21 11:06:39;;;;;;;1.15;0.80;;;;;;;;;;5071394;28;20044;-78
2023/07/21 11:09:09;;;;;;;1.67;1.10;;;;;;;;;;5058494;28;20056;-78
2023/07/21 11:11:36;;;;;;;2.55;1.40;;;;;;;;;;5067861;28;20040;-78
2023/07/21 11:14:03;;;;;;;7.80;1.35;;;;;;;;;;5071012;28;20041;-79
2023/07/21 11:16:29;;;;;;;2.00;1.15;;;;;;;;;;5065647;28;20049;-79
2023/07/21 11:18:56;;;;;;;1.45;1.00;;;;;;;;;;5062214;28;20059;-78
2023/07/21 11:21:22;;;;;;;3.00;1.50;;;;;;;;;;5071196;28;20332;-78
2023/07/21 11:23:55;;;;;;;4.05;1.40;;;;;;;;;;5069098;28;20039;-78
2023/07/21 11:26:22;;;;;;;2.60;1.30;;;;;;;;;;5065378;28;20052;-78
2023/07/21 11:28:50;;;;;;;2.85;1.27;;;;;;;;;;5072521;28;20103;-79
2023/07/21 11:31:18;;;;;;;3.58;1.20;;;;;;;;;;5064719;28;20169;-79
2023/07/21 11:33:47;;;;;;;1.58;1.13;;;;;;;;;;5064426;28;20355;-78
2023/07/21 11:36:16;;;;;;;1.98;1.25;;;;;;;;;;5063814;28;20040;-79
2023/07/21 11:38:57;;;;;;;2.53;1.20;;;;;;;;;;5072074;28;20064;-78
2023/07/21 11:41:36;;;;;;;1.77;1.20;;;;;;;;;;5063456;28;20051;-79
2023/07/21 11:44:03;;;;;;;2.40;1.40;;;;;;;;;;5069367;28;20280;-78
2023/07/21 11:46:29;;;;;;;2.75;1.27;;;;;;;;;;5042255;28;20454;-78
2023/07/21 11:48:56;;;;;;;4.05;1.25;;;;;;;;;;5071404;28;20071;-78
2023/07/21 11:51:23;;;;;;;2.80;1.55;;;;;;;;;;5064776;28;20484;-78
2023/07/21 11:53:50;;;;;;;2.85;1.30;;;;;;;;;;5072113;28;20040;-78
2023/07/21 11:56:17;;;;;;;2.15;1.50;;;;;;;;;;5069924;28;20048;-78
2023/07/21 11:58:43;;;;;;;5.13;1.67;;;;;;;;;;5063561;28;20048;-78
2023/07/21 12:01:10;;;;;;;2.03;1.42;;;;;;;;;;5071201;28;20056;-77
2023/07/21 12:03:37;;;;;;;1.83;1.30;;;;;;;;;;5061956;28;20067;-77
2023/07/21 12:06:04;;;;;;;3.83;1.33;;;;;;;;;;5060770;28;20041;-79
2023/07/21 12:08:32;;;;;;;2.25;1.48;;;;;;;;;;5071213;28;20044;-78
2023/07/21 12:10:59;;;;;;;2.22;1.10;;;;;;;;;;5068823;28;20053;-79
2023/07/21 12:13:25;;;;;;;1.88;1.23;;;;;;;;;;5062714;28;20058;-80
2023/07/21 12:15:55;;;;;;;2.60;1.25;;;;;;;;;;5068672;28;20045;-79
2023/07/21 12:18:22;;;;;;;1.88;1.27;;;;;;;;;;5070988;28;20068;-80
2023/07/21 12:20:48;;;;;;;3.40;1.33;;;;;;;;;;5072902;28;20052;-80
2023/07/21 12:23:15;;;;;;;2.60;1.40;;;;;;;;;;5066820;28;20144;-80
2023/07/21 12:25:42;;;;;;;2.10;1.40;;;;;;;;;;5073789;28;20102;-79
2023/07/21 12:28:09;;;;;;;2.88;1.45;;;;;;;;;;5074575;28;20383;-79
2023/07/21 12:30:35;;;;;;;1.90;1.08;;;;;;;;;;5075077;28;20078;-80
2023/07/21 12:33:03;;;;;;;1.50;1.20;;;;;;;;;;5070561;28;20045;-78
2023/07/21 12:35:30;;;;;;;3.30;1.30;;;;;;;;;;5063074;28;20052;-80
2023/07/21 12:37:56;;;;;;;1.88;1.23;;;;;;;;;;5071769;28;20048;-79
2023/07/21 12:40:23;;;;;;;2.25;1.30;;;;;;;;;;5066824;28;20135;-79
2023/07/21 12:42:50;;;;;;;2.05;1.25;;;;;;;;;;5085640;28;20043;-78
2023/07/21 12:45:17;;;;;;;3.15;1.55;;;;;;;;;;5073896;28;20049;-79
2023/07/21 12:47:43;;;;;;;1.85;1.33;;;;;;;;;;5073552;28;20522;-79
2023/07/21 12:50:10;;;;;;;3.63;1.00;;;;;;;;;;5075788;28;20044;-80
2023/07/21 12:52:37;;;;;;;2.90;1.10;;;;;;;;;;5068347;28;20506;-79
2023/07/21 12:55:03;;;;;;;3.00;1.10;;;;;;;;;;5072339;28;20495;-79
2023/07/21 12:57:30;;;;;;;2.55;1.23;;;;;;;;;;5071956;28;20428;-79
2023/07/21 12:59:57;;;;;;;1.80;1.20;;;;;;;;;;5077968;28;20045;-79
2023/07/21 13:02:23;;;;;;;1.98;1.15;;;;;;;;;;5068438;28;20037;-79
2023/07/21 13:04:50;;;;;;;4.13;1.30;;;;;;;;;;5067437;28;20048;-79
2023/07/21 13:07:17;;;;;;;2.28;1.10;;;;;;;;;;5075488;28;20045;-80
2023/07/21 13:09:45;;;;;;;1.70;1.30;;;;;;;;;;5064709;28;20097;-80
2023/07/21 13:12:11;;;;;;;3.00;1.30;;;;;;;;;;5074746;28;20120;-79
2023/07/21 13:14:38;;;;;;;2.38;1.42;;;;;;;;;;5067811;28;20045;-80
2023/07/21 13:17:05;;;;;;;2.65;1.40;;;;;;;;;;5074738;28;20482;-80
2023/07/21 13:19:31;;;;;;;1.90;1.10;;;;;;;;;;5075305;28;20040;-80
2023/07/21 13:22:00;;;;;;;2.42;1.30;;;;;;;;;;5067357;28;20495;-80
2023/07/21 13:24:27;;;;;;;2.80;1.60;;;;;;;;;;5075999;28;20047;-80
2023/07/21 13:26:54;;;;;;;4.45;1.60;;;;;;;;;;5068139;28;20036;-79
2023/07/21 13:29:20;;;;;;;2.22;1.40;;;;;;;;;;5070301;28;24540;-79
2023/07/21 13:31:47;;;;;;;3.83;1.45;;;;;;;;;;5071890;28;20045;-78
2023/07/21 13:34:14;;;;;;;2.28;1.40;;;;;;;;;;5059026;28;20526;-79
2023/07/21 13:36:41;;;;;;;2.72;1.55;;;;;;;;;;5062946;28;20047;-79
2023/07/21 13:39:11;;;;;;;1.70;1.38;;;;;;;;;;5067101;28;20557;-77
2023/07/21 13:41:38;;;;;;;2.63;1.48;;;;;;;;;;5064390;28;20103;-79
2023/07/21 13:44:05;;;;;;;2.40;1.55;;;;;;;;;;5064089;28;20049;-80
2023/07/21 13:46:31;;;;;;;2.90;1.58;;;;;;;;;;5059898;28;20062;-80
2023/07/21 13:48:58;;;;;;;3.20;1.15;;;;;;;;;;5073522;28;20040;-79
2023/07/21 13:51:25;;;;;;;2.05;1.13;;;;;;;;;;5072748;28;20425;-79
2023/07/21 13:53:51;;;;;;;2.47;1.30;;;;;;;;;;5066151;28;20045;-79
2023/07/21 13:56:18;;;;;;;3.75;1.35;;;;;;;;;;5073237;28;20135;-79
2023/07/21 13:58:45;;;;;;;2.10;1.13;;;;;;;;;;5065256;28;20457;-80
2023/07/21 14:01:11;;;;;;;3.22;1.35;;;;;;;;;;5066199;28;20109;-79
2023/07/21 14:03:38;;;;;;;2.20;1.30;;;;;;;;;;5065740;28;20129;-80
2023/07/21 14:06:05;;;;;;;2.50;1.30;;;;;;;;;;5063613;28;20037;-78
2023/07/21 14:08:32;;;;;;;2.63;1.20;;;;;;;;;;5075949;28;20037;-77
2023/07/21 14:10:59;;;;;;;2.08;1.33;;;;;;;;;;5060583;28;20037;-78
2023/07/21 14:13:25;;;;;;;2.40;1.30;;;;;;;;;;5079092;28;20048;-77
2023/07/21 14:15:52;;;;;;;2.08;1.20;;;;;;;;;;5069426;28;20437;-79
2023/07/21 14:18:22;;;;;;;1.88;1.17;;;;;;;;;;5060595;28;20049;-79
2023/07/21 14:20:48;;;;;;;1.88;1.30;;;;;;;;;;5067700;28;20297;-78
2023/07/21 14:23:15;;;;;;;1.70;1.08;;;;;;;;;;5054988;28;20040;-78
2023/07/21 14:25:42;;;;;;;2.03;1.17;;;;;;;;;;5062706;28;20461;-78
2023/07/21 14:28:09;;;;;;;1.95;1.20;;;;;;;;;;5055265;28;20245;-78
2023/07/21 14:30:35;;;;;;;2.58;1.25;;;;;;;;;;5070049;28;20234;-79
2023/07/21 14:33:03;;;;;;;2.13;1.20;;;;;;;;;;5071358;28;20059;-78
2023/07/21 14:35:29;;;;;;;1.42;1.00;;;;;;;;;;5069598;28;20485;-78
2023/07/21 14:37:56;;;;;;;2.28;1.17;;;;;;;;;;5064097;28;20048;-77
2023/07/21 14:40:22;;;;;;;2.75;0.98;;;;;;;;;;5062645;28;20049;-79
2023/07/21 14:42:51;;;;;;;1.98;1.20;;;;;;;;;;5070321;28;20055;-79
2023/07/21 14:45:17;;;;;;;1.23;1.00;;;;;;;;;;5058690;28;20326;-79
2023/07/21 14:47:44;;;;;;;1.48;1.05;;;;;;;;;;5064426;28;20214;-79
2023/07/21 14:50:11;;;;;;;1.38;1.10;;;;;;;;;;5066934;28;20049;-79
2023/07/21 14:52:38;;;;;;;1.77;1.10;;;;;;;;;;5069260;28;20056;-80